Time;durP1;ratioP1;P1;durP2;ratioP2;P2;SDS_P1;SDS_P2;PMS_P1;PMS_P2;Temp;Humidity;BMP_temperature;BMP_pressure;BME280_temperature;BME280_humidity;BME280_pressure;Samples;Min_cycle;Max_cycle;Signal;HPM_P1;HPM_P2
2022/11/27 00:01:13;;;;;;;53.20;33.60;;;;;;;3.98;100.00;100251.48;105961;1290;58960;-74
2022/11/27 00:03:42;;;;;;;52.10;33.80;;;;;;;3.99;100.00;100253.77;105933;1289;59175;-74
2022/11/27 00:06:14;;;;;;;52.90;33.80;;;;;;;3.99;100.00;100254.11;105746;1290;59037;-74
2022/11/27 00:08:42;;;;;;;52.40;34.20;;;;;;;3.97;100.00;100253.45;105944;1286;60079;-74
2022/11/27 00:11:17;;;;;;;50.80;32.40;;;;;;;3.94;100.00;100252.27;105912;1290;65050;-74
2022/11/27 00:13:43;;;;;;;51.40;32.90;;;;;;;3.93;100.00;100252.27;105933;1291;58941;-74
2022/11/27 00:16:11;;;;;;;45.20;30.40;;;;;;;3.93;100.00;100255.30;105925;1284;59107;-74
2022/11/27 00:18:38;;;;;;;47.00;29.50;;;;;;;3.91;100.00;100253.38;105926;1291;64776;-74
2022/11/27 00:21:24;;;;;;;44.40;28.70;;;;;;;3.90;100.00;100249.18;105932;1290;68589;-74
2022/11/27 00:23:52;;;;;;;43.70;28.10;;;;;;;3.89;100.00;100249.21;105900;1290;63940;-74
2022/11/27 00:26:19;;;;;;;43.20;28.20;;;;;;;3.88;100.00;100246.95;105918;1283;59033;-74
2022/11/27 00:28:45;;;;;;;41.90;28.90;;;;;;;3.89;100.00;100252.20;105921;1290;59328;-74
2022/11/27 00:31:13;;;;;;;43.30;28.90;;;;;;;3.89;100.00;100246.04;105947;1290;64537;-74
2022/11/27 00:33:39;;;;;;;48.50;30.90;;;;;;;3.90;100.00;100244.80;105931;1290;69902;-74
2022/11/27 00:36:06;;;;;;;48.00;29.40;;;;;;;3.88;100.00;100243.41;105920;1290;58851;-74
2022/11/27 00:38:34;;;;;;;41.30;28.50;;;;;;;3.86;100.00;100243.63;105602;1302;59458;-74
2022/11/27 00:41:11;;;;;;;44.20;30.20;;;;;;;3.83;100.00;100247.55;105785;1292;58990;-74
2022/11/27 00:43:37;;;;;;;44.10;28.70;;;;;;;3.78;100.00;100247.84;105919;1290;67010;-74
2022/11/27 00:46:03;;;;;;;47.50;29.80;;;;;;;3.74;100.00;100244.04;105782;1285;58945;-74
2022/11/27 00:48:30;;;;;;;46.00;30.90;;;;;;;3.70;100.00;100245.34;105919;1289;58960;-74
2022/11/27 00:51:05;;;;;;;50.30;32.10;;;;;;;3.69;100.00;100245.38;105937;1290;59011;-74
2022/11/27 00:53:33;;;;;;;52.20;33.80;;;;;;;3.70;100.00;100249.58;105683;1293;59111;-74
2022/11/27 00:56:00;;;;;;;54.10;33.50;;;;;;;3.70;100.00;100243.06;105914;1290;59149;-74
2022/11/27 00:58:26;;;;;;;58.20;36.60;;;;;;;3.68;100.00;100244.14;105939;1290;60066;-74
2022/11/27 01:01:04;;;;;;;53.50;34.80;;;;;;;3.67;100.00;100241.36;105745;1293;58956;-74
2022/11/27 01:03:31;;;;;;;54.30;35.30;;;;;;;3.66;100.00;100241.91;105897;1290;58932;-74
2022/11/27 01:06:04;;;;;;;55.00;36.40;;;;;;;3.68;100.00;100238.19;105699;1300;59020;-74
2022/11/27 01:08:31;;;;;;;60.90;38.00;;;;;;;3.70;100.00;100234.11;105924;1290;67025;-74
2022/11/27 01:10:59;;;;;;;61.50;39.70;;;;;;;3.71;100.00;100232.85;105892;1283;61020;-74
2022/11/27 01:13:35;;;;;;;64.90;42.30;;;;;;;3.73;100.00;100230.52;105920;1283;63940;-74
2022/11/27 01:16:11;;;;;;;69.50;43.40;;;;;;;3.74;100.00;100231.57;105921;1291;58934;-74
2022/11/27 01:18:39;;;;;;;76.00;46.10;;;;;;;3.73;100.00;100230.52;105927;1283;61334;-74
2022/11/27 01:21:06;;;;;;;74.80;46.80;;;;;;;3.73;100.00;100230.52;105929;1283;74530;-74
2022/11/27 01:23:32;;;;;;;88.40;53.70;;;;;;;3.74;100.00;100235.27;105781;1290;58929;-74
2022/11/27 01:26:00;;;;;;;81.90;51.70;;;;;;;3.76;100.00;100233.63;105940;1284;58987;-75
2022/11/27 01:28:26;;;;;;;77.90;50.10;;;;;;;3.78;100.00;100232.20;105937;1290;58917;-74
2022/11/27 01:30:52;;;;;;;69.60;45.00;;;;;;;3.78;100.00;100231.84;105918;1290;58996;-74
2022/11/27 01:33:19;;;;;;;64.60;44.30;;;;;;;3.77;100.00;100230.98;105930;1290;59013;-74
2022/11/27 01:36:00;;;;;;;66.60;43.50;;;;;;;3.74;100.00;100229.80;105968;1283;59286;-74
2022/11/27 01:38:28;;;;;;;58.00;41.30;;;;;;;3.73;100.00;100229.98;105930;1291;64008;-74
2022/11/27 01:41:11;;;;;;;58.40;39.00;;;;;;;3.72;100.00;100227.21;105929;1283;58956;-74
2022/11/27 01:43:44;;;;;;;61.70;41.90;;;;;;;3.71;100.00;100226.17;105772;1292;59032;-74
2022/11/27 01:46:20;;;;;;;64.30;44.60;;;;;;;3.71;100.00;100227.58;105938;1290;65971;-74
2022/11/27 01:48:46;;;;;;;69.30;46.60;;;;;;;3.72;100.00;100226.68;105774;1277;69960;-74
2022/11/27 01:51:12;;;;;;;73.50;48.70;;;;;;;3.75;100.00;100225.58;105748;1284;58945;-74
2022/11/27 01:53:39;;;;;;;70.80;46.10;;;;;;;3.77;100.00;100226.41;105920;1291;58852;-74
2022/11/27 01:56:05;;;;;;;68.10;44.80;;;;;;;3.77;100.00;100227.27;105638;1295;58992;-75
2022/11/27 01:58:32;;;;;;;55.90;39.00;;;;;;;3.76;100.00;100229.41;105912;1290;58826;-74
2022/11/27 02:01:01;;;;;;;61.00;40.90;;;;;;;3.76;100.00;100230.11;105770;1293;59053;-74
2022/11/27 02:03:27;;;;;;;62.10;40.70;;;;;;;3.75;100.00;100228.91;105906;1291;65340;-74
2022/11/27 02:05:53;;;;;;;56.60;41.50;;;;;;;3.74;100.00;100232.27;105912;1290;59152;-74
2022/11/27 02:08:20;;;;;;;62.30;41.20;;;;;;;3.74;100.00;100228.05;105925;1290;59435;-74
2022/11/27 02:10:52;;;;;;;63.80;43.60;;;;;;;3.74;100.00;100233.15;105939;1289;58950;-75
2022/11/27 02:13:27;;;;;;;61.80;43.50;;;;;;;3.70;100.00;100236.91;105781;1292;60123;-75
2022/11/27 02:15:59;;;;;;;66.00;42.80;;;;;;;3.66;100.00;100233.81;105922;1283;65707;-75
2022/11/27 02:18:50;;;;;;;61.40;44.50;;;;;;;3.62;100.00;100234.95;105926;1290;58895;-75
2022/11/27 02:21:35;;;;;;;58.80;40.80;;;;;;;3.61;100.00;100240.26;105961;1283;58970;-75
2022/11/27 02:24:28;;;;;;;55.40;39.50;;;;;;;3.63;100.00;100240.73;105945;1291;67258;-74
2022/11/27 02:27:01;;;;;;;60.00;39.60;;;;;;;3.65;100.00;100238.41;105947;1289;61788;-75
2022/11/27 02:29:32;;;;;;;58.70;41.90;;;;;;;3.65;100.00;100239.27;105581;1285;73769;-75
2022/11/27 02:32:09;;;;;;;62.40;42.30;;;;;;;3.65;100.00;100235.94;105574;1285;59100;-75
2022/11/27 02:34:44;;;;;;;64.90;44.30;;;;;;;3.64;100.00;100237.55;105924;1283;58857;-75
2022/11/27 02:37:21;;;;;;;57.60;39.50;;;;;;;3.65;100.00;100239.98;105924;1296;74836;-74
2022/11/27 02:39:55;;;;;;;54.60;37.20;;;;;;;3.67;100.00;100243.45;105676;1293;59819;-75
2022/11/27 02:42:22;;;;;;;55.50;37.70;;;;;;;3.70;100.00;100250.96;105917;1290;64101;-75
2022/11/27 02:45:00;;;;;;;52.40;37.70;;;;;;;3.72;100.00;100250.95;105945;1291;58889;-75
2022/11/27 02:47:29;;;;;;;54.50;34.90;;;;;;;3.72;100.00;100251.64;105872;1290;58980;-75
2022/11/27 02:49:56;;;;;;;55.10;35.00;;;;;;;3.72;100.00;100251.27;105951;1290;65991;-75
2022/11/27 02:52:25;;;;;;;49.10;33.20;;;;;;;3.73;100.00;100253.55;105940;1291;59053;-75
2022/11/27 02:54:59;;;;;;;51.70;35.50;;;;;;;3.74;100.00;100255.66;105898;1290;62875;-74
2022/11/27 02:57:26;;;;;;;53.60;38.70;;;;;;;3.74;100.00;100256.34;105919;1290;58818;-75
2022/11/27 02:59:56;;;;;;;57.80;40.40;;;;;;;3.73;100.00;100260.40;105946;1291;58913;-75
2022/11/27 03:02:31;;;;;;;60.10;40.30;;;;;;;3.70;100.00;100256.95;105921;1290;66168;-75
2022/11/27 03:05:01;;;;;;;56.30;40.10;;;;;;;3.68;100.00;100261.90;105912;1290;61074;-75
2022/11/27 03:07:43;;;;;;;;;;;;;;;3.66;100.00;100258.95;105929;1291;72778;-75
2022/11/27 03:10:18;;;;;;;60.20;38.70;;;;;;;3.61;100.00;100262.20;105907;1290;60554;-75
2022/11/27 03:12:47;;;;;;;58.60;38.90;;;;;;;3.58;100.00;100262.27;105913;1290;60118;-75
2022/11/27 03:15:13;;;;;;;70.10;42.30;;;;;;;3.56;100.00;100261.96;105928;1290;65558;-75
2022/11/27 03:17:54;;;;;;;68.20;41.70;;;;;;;3.54;100.00;100268.48;105940;1290;58959;-75
2022/11/27 03:20:22;;;;;;;68.60;42.70;;;;;;;3.52;100.00;100271.68;105922;1290;65499;-75
2022/11/27 03:22:48;;;;;;;67.20;44.90;;;;;;;3.51;100.00;100270.63;105763;1292;58978;-74
2022/11/27 03:25:15;;;;;;;66.80;42.80;;;;;;;3.52;100.00;100271.49;105936;1290;58848;-74
2022/11/27 03:27:58;;;;;;;63.50;42.10;;;;;;;3.52;100.00;100271.14;105941;1283;59073;-75
2022/11/27 03:30:24;;;;;;;60.80;41.10;;;;;;;3.52;100.00;100265.70;105947;1290;59800;-75
2022/11/27 03:32:51;;;;;;;61.40;43.20;;;;;;;3.52;100.00;100263.25;105913;1284;59029;-75
2022/11/27 03:35:21;;;;;;;67.50;44.80;;;;;;;3.51;100.00;100264.48;105890;1283;59000;-75
2022/11/27 03:37:47;;;;;;;68.60;43.80;;;;;;;3.48;100.00;100262.79;105637;1294;60483;-75
2022/11/27 03:40:15;;;;;;;67.50;43.00;;;;;;;3.46;100.00;100261.77;105881;1282;66275;-74
2022/11/27 03:42:47;;;;;;;63.60;41.50;;;;;;;3.46;100.00;100260.54;105939;1275;61220;-75
2022/11/27 03:45:25;;;;;;;58.90;40.60;;;;;;;3.46;100.00;100255.98;105941;1291;63739;-74
2022/11/27 03:48:05;;;;;;;60.80;40.20;;;;;;;3.46;100.00;100257.20;105921;1290;59137;-74
2022/11/27 03:50:46;;;;;;;54.30;36.00;;;;;;;3.45;100.00;100256.70;105919;1290;58922;-74
2022/11/27 03:53:34;;;;;;;49.30;34.80;;;;;;;3.44;100.00;100256.02;105929;1290;64955;-74
2022/11/27 03:56:42;;;;;;;46.10;31.80;;;;;;;3.45;100.00;100256.34;105936;1277;61067;-74
2022/11/27 03:59:21;;;;;;;43.20;31.80;;;;;;;3.45;100.00;100252.48;105309;1298;63942;-74
2022/11/27 04:01:47;;;;;;;48.60;33.40;;;;;;;3.45;100.00;100252.48;105268;1299;58977;-74
2022/11/27 04:04:14;;;;;;;47.40;31.80;;;;;;;3.44;100.00;100256.16;105283;1298;59125;-74
2022/11/27 04:06:40;;;;;;;36.90;26.00;;;;;;;3.43;100.00;100262.02;105279;1297;58982;-75
2022/11/27 04:09:05;;;;;;;33.80;23.60;;;;;;;3.41;100.00;100259.74;105327;1299;59414;-75
2022/11/27 04:11:32;;;;;;;30.50;20.60;;;;;;;3.40;100.00;100258.71;105288;1298;59091;-75
2022/11/27 04:13:58;;;;;;;25.90;20.40;;;;;;;3.40;100.00;100257.48;105297;1299;59314;-74
2022/11/27 04:16:24;;;;;;;34.60;24.30;;;;;;;3.40;100.00;100256.08;105294;1298;58962;-75
2022/11/27 04:18:51;;;;;;;32.00;21.80;;;;;;;3.40;100.00;100255.73;105284;1282;58949;-75
2022/11/27 04:21:17;;;;;;;30.10;21.70;;;;;;;3.40;100.00;100256.96;105299;1298;59076;-74
2022/11/27 04:23:43;;;;;;;30.50;23.40;;;;;;;3.40;100.00;100259.44;105308;1297;59094;-75
2022/11/27 04:26:11;;;;;;;28.80;23.00;;;;;;;3.39;100.00;100254.86;105294;1298;59066;-75
2022/11/27 04:28:37;;;;;;;27.10;20.90;;;;;;;3.39;100.00;100255.92;105317;1305;59011;-75
2022/11/27 04:31:03;;;;;;;28.60;21.80;;;;;;;3.37;100.00;100254.91;105295;1298;59020;-75
2022/11/27 04:33:29;;;;;;;33.40;23.60;;;;;;;3.35;100.00;100255.48;105307;1292;59041;-74
2022/11/27 04:35:55;;;;;;;27.80;21.80;;;;;;;3.33;100.00;100253.92;105475;1298;59409;-75
2022/11/27 04:38:21;;;;;;;34.30;23.90;;;;;;;3.32;100.00;100247.61;105939;1290;58965;-74
2022/11/27 04:40:51;;;;;;;29.20;23.50;;;;;;;3.33;100.00;100247.42;105953;1291;58820;-75
2022/11/27 04:43:16;;;;;;;34.30;24.10;;;;;;;3.32;100.00;100246.73;105973;1291;58995;-75
2022/11/27 04:45:43;;;;;;;31.90;24.30;;;;;;;3.30;100.00;100244.65;105959;1285;59061;-75
2022/11/27 04:48:10;;;;;;;34.20;25.80;;;;;;;3.32;100.00;100246.91;105929;1291;59371;-74
2022/11/27 04:50:36;;;;;;;34.60;26.60;;;;;;;3.32;100.00;100249.02;105961;1286;58912;-74
2022/11/27 04:53:02;;;;;;;38.30;29.00;;;;;;;3.31;100.00;100245.70;105939;1284;58990;-74
2022/11/27 04:55:28;;;;;;;35.80;28.00;;;;;;;3.33;100.00;100247.60;105957;1281;59190;-74
2022/11/27 04:57:54;;;;;;;41.40;32.40;;;;;;;3.34;100.00;100247.74;105943;1291;59128;-74
2022/11/27 05:00:20;;;;;;;36.40;30.40;;;;;;;3.32;100.00;100246.73;105943;1289;58792;-74
2022/11/27 05:02:46;;;;;;;41.80;30.30;;;;;;;3.30;100.00;100249.22;105770;1290;59071;-76
2022/11/27 05:05:12;;;;;;;36.60;30.00;;;;;;;3.29;100.00;100250.11;105943;1284;58795;-75
2022/11/27 05:07:38;;;;;;;38.60;30.00;;;;;;;3.27;100.00;100248.73;105727;1288;59227;-74
2022/11/27 05:10:06;;;;;;;36.20;30.90;;;;;;;3.27;100.00;100251.03;105725;1291;59035;-74
2022/11/27 05:12:32;;;;;;;35.80;27.50;;;;;;;3.26;100.00;100246.66;105953;1291;58952;-74
2022/11/27 05:14:58;;;;;;;38.40;29.20;;;;;;;3.25;100.00;100246.86;105938;1291;58925;-74
2022/11/27 05:17:24;;;;;;;35.90;29.10;;;;;;;3.23;100.00;100248.12;105993;1284;58930;-75
2022/11/27 05:19:50;;;;;;;38.90;28.30;;;;;;;3.22;100.00;100248.15;105980;1289;61131;-74
2022/11/27 05:22:16;;;;;;;36.50;28.90;;;;;;;3.22;100.00;100244.45;105945;1287;58883;-74
2022/11/27 05:24:42;;;;;;;40.90;29.90;;;;;;;3.22;100.00;100246.39;105926;1297;59001;-74
2022/11/27 05:27:09;;;;;;;38.70;30.70;;;;;;;3.22;100.00;100250.59;105926;1289;58925;-75
2022/11/27 05:29:34;;;;;;;35.20;28.40;;;;;;;3.25;100.00;100245.27;105916;1283;58934;-74
2022/11/27 05:32:00;;;;;;;32.40;28.20;;;;;;;3.29;100.00;100246.27;105925;1285;58897;-74
2022/11/27 05:34:26;;;;;;;37.30;29.40;;;;;;;3.29;100.00;100240.45;105966;1290;58883;-74
2022/11/27 05:36:52;;;;;;;41.30;28.40;;;;;;;3.29;100.00;100240.28;105914;1291;58956;-73
2022/11/27 05:39:18;;;;;;;37.10;26.40;;;;;;;3.31;100.00;100243.95;105943;1290;58968;-74
2022/11/27 05:41:44;;;;;;;33.90;25.70;;;;;;;3.31;100.00;100243.41;105982;1291;58984;-74
2022/11/27 05:44:12;;;;;;;33.80;25.30;;;;;;;3.31;100.00;100244.64;105938;1293;63955;-74
2022/11/27 05:46:42;;;;;;;39.30;29.40;;;;;;;3.30;100.00;100246.93;105924;1290;58794;-74
2022/11/27 05:49:13;;;;;;;35.20;26.40;;;;;;;3.30;100.00;100249.05;105950;1287;59018;-74
2022/11/27 05:51:40;;;;;;;32.50;23.90;;;;;;;3.31;100.00;100252.71;105947;1282;67235;-74
2022/11/27 05:54:07;;;;;;;33.90;25.10;;;;;;;3.32;100.00;100255.34;105943;1290;61191;-74
2022/11/27 05:56:33;;;;;;;32.10;24.80;;;;;;;3.32;100.00;100251.66;105959;1284;59765;-74
2022/11/27 05:58:59;;;;;;;34.50;26.30;;;;;;;3.30;100.00;100248.17;105937;1284;58924;-74
2022/11/27 06:01:25;;;;;;;36.90;26.80;;;;;;;3.29;100.00;100244.15;105941;1284;58970;-76
2022/11/27 06:03:51;;;;;;;38.20;29.10;;;;;;;3.29;100.00;100242.92;105810;1293;59056;-74
2022/11/27 06:06:19;;;;;;;34.80;26.30;;;;;;;3.30;100.00;100243.95;105958;1291;58900;-75
2022/11/27 06:08:46;;;;;;;36.20;24.70;;;;;;;3.28;100.00;100244.14;105784;1292;59047;-75
2022/11/27 06:11:17;;;;;;;34.50;25.50;;;;;;;3.29;100.00;100245.38;105929;1291;58883;-75
2022/11/27 06:13:45;;;;;;;32.10;26.50;;;;;;;3.28;100.00;100243.11;105903;1290;58949;-74
2022/11/27 06:16:14;;;;;;;38.60;30.10;;;;;;;3.25;100.00;100248.08;105938;1290;66062;-74
2022/11/27 06:18:40;;;;;;;35.40;27.40;;;;;;;3.25;100.00;100247.04;105935;1290;59507;-74
2022/11/27 06:21:08;;;;;;;38.10;31.80;;;;;;;3.24;100.00;100242.31;105946;1289;59010;-74
2022/11/27 06:23:35;;;;;;;41.00;35.50;;;;;;;3.24;100.00;100244.08;105930;1291;58834;-74
2022/11/27 06:26:10;;;;;;;44.40;34.90;;;;;;;3.24;100.00;100241.44;105664;1293;58984;-74
2022/11/27 06:28:36;;;;;;;41.60;30.90;;;;;;;3.26;100.00;100244.91;105938;1288;67274;-74
2022/11/27 06:31:09;;;;;;;33.40;27.30;;;;;;;3.25;100.00;100247.54;105941;1292;68926;-74
2022/11/27 06:33:36;;;;;;;39.10;31.20;;;;;;;3.26;100.00;100241.55;105936;1298;64107;-74
2022/11/27 06:36:03;;;;;;;40.70;31.10;;;;;;;3.27;100.00;100244.02;105909;1291;58924;-74
2022/11/27 06:38:32;;;;;;;34.90;27.80;;;;;;;3.27;100.00;100244.89;105914;1291;60287;-73
2022/11/27 06:41:12;;;;;;;37.80;30.10;;;;;;;3.26;100.00;100242.95;105940;1291;65810;-75
2022/11/27 06:43:38;;;;;;;35.40;27.90;;;;;;;3.27;100.00;100242.08;105944;1283;59099;-74
2022/11/27 06:46:10;;;;;;;37.50;31.80;;;;;;;3.26;100.00;100239.83;105938;1290;65050;-74
2022/11/27 06:48:36;;;;;;;38.20;33.40;;;;;;;3.25;100.00;100237.20;105693;1286;59261;-74
2022/11/27 06:51:05;;;;;;;38.20;30.60;;;;;;;3.26;100.00;100239.27;105929;1290;58969;-74
2022/11/27 06:53:34;;;;;;;39.80;30.20;;;;;;;3.26;100.00;100238.92;105942;1284;65842;-74
2022/11/27 06:56:05;;;;;;;37.70;27.60;;;;;;;3.27;100.00;100238.58;105933;1290;59906;-73
2022/11/27 06:58:31;;;;;;;37.20;27.70;;;;;;;3.27;100.00;100239.79;105917;1291;64079;-73
2022/11/27 07:00:58;;;;;;;36.40;27.20;;;;;;;3.27;100.00;100240.84;105708;1293;59063;-74
2022/11/27 07:03:24;;;;;;;38.10;26.70;;;;;;;3.30;100.00;100241.67;105938;1290;59331;-74
2022/11/27 07:05:50;;;;;;;31.00;24.10;;;;;;;3.34;100.00;100249.52;105788;1292;59179;-74
2022/11/27 07:08:18;;;;;;;29.70;23.50;;;;;;;3.36;100.00;100252.46;105932;1289;60200;-74
2022/11/27 07:10:43;;;;;;;27.20;21.40;;;;;;;3.39;100.00;100258.03;105909;1284;59019;-74
2022/11/27 07:13:09;;;;;;;26.80;22.50;;;;;;;3.39;100.00;100253.11;105944;1290;58987;-75
2022/11/27 07:15:35;;;;;;;29.60;25.30;;;;;;;3.39;100.00;100249.95;105938;1287;58853;-75
2022/11/27 07:18:01;;;;;;;30.50;24.50;;;;;;;3.44;100.00;100254.43;105953;1285;59026;-74
2022/11/27 07:20:27;;;;;;;29.20;24.20;;;;;;;3.48;100.00;100255.76;105931;1294;59175;-74
2022/11/27 07:22:54;;;;;;;23.00;20.50;;;;;;;3.50;100.00;100256.78;105700;1294;59065;-74
2022/11/27 07:25:20;;;;;;;25.30;20.80;;;;;;;3.54;100.00;100262.52;105883;1291;59217;-74
2022/11/27 07:27:46;;;;;;;23.20;18.40;;;;;;;3.58;100.00;100260.70;105864;1282;58975;-74
2022/11/27 07:30:32;;;;;;;27.10;22.90;;;;;;;3.58;100.00;100264.73;105930;1290;59088;-87
2022/11/27 07:32:58;;;;;;;26.50;22.40;;;;;;;3.61;100.00;100265.89;105564;1296;59265;-80
2022/11/27 07:35:24;;;;;;;27.30;22.40;;;;;;;3.66;100.00;100268.60;105649;1294;59052;-80
2022/11/27 07:37:50;;;;;;;24.30;21.30;;;;;;;3.71;100.00;100269.06;105573;1294;58919;-75
2022/11/27 07:40:17;;;;;;;27.80;22.40;;;;;;;3.75;100.00;100268.81;105653;1294;59077;-75
2022/11/27 07:42:43;;;;;;;28.20;23.80;;;;;;;3.79;100.00;100267.16;105599;1293;59020;-76
2022/11/27 07:45:10;;;;;;;25.50;19.80;;;;;;;3.85;100.00;100264.92;105603;1294;59060;-76
2022/11/27 07:47:37;;;;;;;24.90;20.70;;;;;;;3.91;100.00;100260.42;105519;1297;58993;-77
2022/11/27 07:50:04;;;;;;;18.30;16.10;;;;;;;3.96;100.00;100260.84;105609;1287;58945;-76
2022/11/27 07:52:30;;;;;;;19.50;16.90;;;;;;;3.97;100.00;100255.91;105581;1300;58945;-75
2022/11/27 07:54:56;;;;;;;19.30;16.10;;;;;;;3.99;100.00;100260.26;105607;1293;59071;-75
2022/11/27 07:57:22;;;;;;;22.80;17.80;;;;;;;4.01;100.00;100260.39;105619;1294;58905;-75
2022/11/27 07:59:48;;;;;;;18.60;16.50;;;;;;;4.04;100.00;100260.85;105593;1294;58958;-75
2022/11/27 08:02:14;;;;;;;20.00;17.90;;;;;;;4.06;100.00;100259.95;105587;1300;59100;-76
2022/11/27 08:04:40;;;;;;;21.20;18.30;;;;;;;4.08;100.00;100258.69;105805;1282;58971;-76
2022/11/27 08:07:07;;;;;;;20.00;16.70;;;;;;;4.10;100.00;100262.85;105865;1284;59021;-76
2022/11/27 08:09:33;;;;;;;18.70;16.10;;;;;;;4.15;100.00;100262.22;105936;1282;59152;-77
2022/11/27 08:11:59;;;;;;;22.70;18.30;;;;;;;4.19;100.00;100261.61;105693;1293;58988;-76
2022/11/27 08:14:25;;;;;;;23.10;19.10;;;;;;;4.21;100.00;100264.38;105760;1292;59063;-75
2022/11/27 08:16:53;;;;;;;21.30;19.00;;;;;;;4.23;100.00;100255.20;105939;1291;58962;-75
2022/11/27 08:19:19;;;;;;;20.70;17.70;;;;;;;4.28;100.00;100253.68;105929;1292;58958;-76
2022/11/27 08:21:45;;;;;;;21.00;18.30;;;;;;;4.34;100.00;100253.20;105935;1292;59024;-76
2022/11/27 08:24:12;;;;;;;16.20;14.40;;;;;;;4.39;100.00;100254.34;105952;1290;58889;-76
2022/11/27 08:26:38;;;;;;;16.60;13.20;;;;;;;4.41;100.00;100259.73;105899;1291;59289;-77
2022/11/27 08:29:05;;;;;;;16.50;14.00;;;;;;;4.45;100.00;100260.20;105932;1291;58896;-77
2022/11/27 08:31:31;;;;;;;16.40;14.00;;;;;;;4.48;100.00;100256.63;105929;1291;58983;-75
2022/11/27 08:33:58;;;;;;;18.80;14.60;;;;;;;4.52;100.00;100260.05;105946;1288;58952;-76
2022/11/27 08:36:25;;;;;;;19.60;16.10;;;;;;;4.59;100.00;100258.83;105960;1291;59091;-76
2022/11/27 08:38:52;;;;;;;17.50;14.90;;;;;;;4.70;100.00;100258.93;105944;1283;59097;-76
2022/11/27 08:41:18;;;;;;;16.60;13.60;;;;;;;4.78;100.00;100257.69;105961;1290;59167;-76
2022/11/27 08:43:44;;;;;;;15.30;12.70;;;;;;;4.85;100.00;100258.25;105962;1291;59013;-76
2022/11/27 08:46:10;;;;;;;16.00;14.00;;;;;;;4.87;100.00;100262.07;105934;1292;59001;-75
2022/11/27 08:48:36;;;;;;;18.30;13.50;;;;;;;4.92;100.00;100264.95;105910;1291;58979;-76
2022/11/27 08:51:07;;;;;;;16.70;12.10;;;;;;;4.95;100.00;100262.60;105679;1289;59045;-76
2022/11/27 08:53:36;;;;;;;12.20;10.90;;;;;;;4.96;100.00;100260.09;105635;1293;58954;-77
2022/11/27 08:56:12;;;;;;;14.00;11.80;;;;;;;4.99;100.00;100260.37;105658;1283;65961;-76
2022/11/27 08:58:39;;;;;;;15.20;12.50;;;;;;;5.00;100.00;100259.98;105626;1296;60038;-75
2022/11/27 09:01:07;;;;;;;14.20;12.30;;;;;;;5.04;100.00;100259.91;105648;1294;65407;-76
2022/11/27 09:03:33;;;;;;;13.00;11.50;;;;;;;5.06;100.00;100258.09;105526;1301;58920;-76
2022/11/27 09:05:59;;;;;;;15.20;11.90;;;;;;;5.05;100.00;100257.77;105666;1294;59224;-76
2022/11/27 09:08:25;;;;;;;18.10;13.50;;;;;;;5.02;100.00;100258.20;105687;1293;59522;-75
2022/11/27 09:10:51;;;;;;;16.30;14.50;;;;;;;5.02;100.00;100255.73;105664;1295;58945;-75
2022/11/27 09:13:17;;;;;;;15.90;13.00;;;;;;;5.02;100.00;100250.09;105658;1289;59008;-76
2022/11/27 09:15:43;;;;;;;15.40;12.90;;;;;;;5.04;100.00;100253.20;105649;1294;59096;-75
2022/11/27 09:18:09;;;;;;;19.20;14.70;;;;;;;5.08;100.00;100252.43;105660;1294;59229;-76
2022/11/27 09:20:35;;;;;;;15.80;13.50;;;;;;;5.12;100.00;100251.44;105678;1301;59018;-76
2022/11/27 09:23:01;;;;;;;14.50;12.50;;;;;;;5.20;100.00;100251.60;105863;1289;58931;-77
2022/11/27 09:25:29;;;;;;;14.40;12.60;;;;;;;5.27;100.00;100251.94;105934;1292;59169;-76
2022/11/27 09:27:55;;;;;;;13.80;12.30;;;;;;;5.36;100.00;100244.31;105930;1291;60080;-76
2022/11/27 09:30:21;;;;;;;13.80;12.20;;;;;;;5.46;100.00;100237.19;105913;1291;59020;-76
2022/11/27 09:32:47;;;;;;;14.80;12.80;;;;;;;5.58;100.00;100237.20;105930;1297;59332;-77
2022/11/27 09:35:13;;;;;;;31.70;26.10;;;;;;;5.69;100.00;100234.65;105917;1296;59005;-76
2022/11/27 09:37:40;;;;;;;69.10;55.10;;;;;;;5.80;100.00;100232.04;105930;1290;58987;-76
2022/11/27 09:40:12;;;;;;;29.70;26.60;;;;;;;5.87;100.00;100229.19;105937;1289;58871;-76
2022/11/27 09:42:47;;;;;;;28.50;26.00;;;;;;;5.90;100.00;100229.65;105926;1290;64772;-76
2022/11/27 09:45:16;;;;;;;17.00;15.40;;;;;;;5.86;100.00;100229.06;105844;1291;60090;-76
2022/11/27 09:47:49;;;;;;;18.30;16.10;;;;;;;5.86;100.00;100226.41;105713;1293;63978;-76
2022/11/27 09:50:21;;;;;;;19.30;17.30;;;;;;;5.92;100.00;100229.79;105928;1292;58946;-76
2022/11/27 09:52:53;;;;;;;22.40;20.00;;;;;;;6.00;100.00;100227.30;105838;1291;58858;-75
2022/11/27 09:55:23;;;;;;;27.10;23.30;;;;;;;6.04;100.00;100224.17;105936;1292;65763;-76
2022/11/27 09:58:01;;;;;;;28.20;22.70;;;;;;;6.09;100.00;100225.09;105933;1291;60132;-76
2022/11/27 10:00:27;;;;;;;17.90;16.10;;;;;;;6.16;100.00;100227.00;105944;1292;62581;-77
2022/11/27 10:02:53;;;;;;;14.00;12.60;;;;;;;6.23;100.00;100224.34;105924;1292;58972;-76
2022/11/27 10:05:25;;;;;;;14.90;13.20;;;;;;;6.23;100.00;100220.44;105907;1296;58969;-76
2022/11/27 10:08:09;;;;;;;16.70;15.00;;;;;;;6.22;100.00;100221.02;105915;1291;67325;-76
2022/11/27 10:10:40;;;;;;;19.50;15.50;;;;;;;6.23;100.00;100221.16;105936;1295;61191;-75
2022/11/27 10:13:22;;;;;;;20.00;16.90;;;;;;;6.24;100.00;100216.70;105916;1284;65053;-75
2022/11/27 10:16:13;;;;;;;17.30;14.70;;;;;;;6.24;100.00;100214.42;105918;1290;58822;-75
2022/11/27 10:18:46;;;;;;;16.60;14.00;;;;;;;6.26;100.00;100218.93;105913;1291;61115;-76
2022/11/27 10:21:44;;;;;;;17.20;15.40;;;;;;;6.27;100.00;100212.05;105754;1292;67230;-76
2022/11/27 10:24:37;;;;;;;18.40;15.30;;;;;;;6.26;100.00;100206.26;105927;1291;61333;-76
2022/11/27 10:27:15;;;;;;;17.40;15.50;;;;;;;6.26;100.00;100203.23;105899;1289;73697;-76
2022/11/27 10:29:48;;;;;;;20.80;15.70;;;;;;;6.22;100.00;100198.59;105922;1295;58943;-76
2022/11/27 10:32:24;;;;;;;18.30;14.80;;;;;;;6.20;100.00;100200.08;105937;1296;58948;-77
2022/11/27 10:35:00;;;;;;;16.40;14.20;;;;;;;6.20;100.00;100198.29;105934;1289;64988;-77
2022/11/27 10:37:35;;;;;;;16.50;14.20;;;;;;;6.22;100.00;100195.96;105671;1295;59946;-76
2022/11/27 10:40:07;;;;;;;16.20;14.60;;;;;;;6.24;100.00;100195.37;105927;1292;63292;-76
2022/11/27 10:42:43;;;;;;;19.10;14.40;;;;;;;6.25;100.00;100189.69;105737;1294;58943;-76
2022/11/27 10:45:19;;;;;;;16.30;13.70;;;;;;;6.24;100.00;100188.14;105889;1295;59258;-76
2022/11/27 10:47:47;;;;;;;17.50;15.60;;;;;;;6.24;100.00;100188.84;105571;1282;174482;-75
2022/11/27 10:50:18;;;;;;;21.30;16.20;;;;;;;6.25;100.00;100189.86;105929;1295;60079;-76
2022/11/27 10:52:54;;;;;;;21.30;17.10;;;;;;;6.20;100.00;100185.07;105939;1290;71370;-76
2022/11/27 10:55:44;;;;;;;19.80;16.60;;;;;;;6.21;100.00;100181.87;105911;1297;58983;-76
2022/11/27 10:58:23;;;;;;;22.30;16.60;;;;;;;6.21;100.00;100181.01;105941;1291;58926;-74
2022/11/27 11:01:09;;;;;;;20.10;16.00;;;;;;;6.17;100.00;100181.80;105902;1291;75872;-76
2022/11/27 11:03:35;;;;;;;21.40;17.60;;;;;;;6.15;100.00;100181.33;105932;1289;59789;-77
2022/11/27 11:06:12;;;;;;;21.20;17.40;;;;;;;6.20;100.00;100179.43;105904;1296;65179;-77
2022/11/27 11:08:38;;;;;;;16.90;14.60;;;;;;;6.22;100.00;100176.73;105471;1297;58878;-76
2022/11/27 11:11:06;;;;;;;18.40;14.60;;;;;;;6.25;100.00;100174.88;105919;1291;58829;-76
2022/11/27 11:13:32;;;;;;;17.10;14.20;;;;;;;6.27;100.00;100175.69;105907;1283;64532;-77